createdAt,value
2016-05-06T00:00:19.556Z,10.78
2016-05-06T00:01:19.714Z,10.76
2016-05-06T00:02:21.547Z,10.82
2016-05-06T00:03:20.768Z,10.71
2016-05-06T00:04:19.692Z,10.76
2016-05-06T00:05:20.725Z,10.71
2016-05-06T00:06:20.010Z,10.73
2016-05-06T00:07:19.855Z,10.78
2016-05-06T00:08:19.672Z,10.78
2016-05-06T00:09:19.533Z,10.74
2016-05-06T00:10:19.677Z,10.61
2016-05-06T00:11:19.679Z,10.63
2016-05-06T00:12:19.714Z,10.68
2016-05-06T00:13:19.669Z,10.55
2016-05-06T00:14:19.672Z,10.6
2016-05-06T00:15:19.643Z,10.52
2016-05-06T00:16:19.646Z,10.42
2016-05-06T00:17:19.492Z,10.47
2016-05-06T00:18:19.636Z,10.44
2016-05-06T00:19:19.638Z,10.42
2016-05-06T00:20:19.625Z,10.32
2016-05-06T00:21:19.481Z,10.38
2016-05-06T00:22:19.624Z,10.29
2016-05-06T00:23:19.611Z,10.26
2016-05-06T00:24:19.473Z,10.3
2016-05-06T00:25:20.132Z,10.34
2016-05-06T00:26:19.604Z,10.27
2016-05-06T00:27:19.432Z,10.25
2016-05-06T00:28:19.593Z,10.23
2016-05-06T00:29:19.596Z,10.23
2016-05-06T00:30:19.424Z,10.23
2016-05-06T00:31:19.586Z,10.17
2016-05-06T00:32:19.589Z,10.18
2016-05-06T00:33:19.589Z,10.18
2016-05-06T00:34:19.576Z,10.05
2016-05-06T00:35:19.562Z,10.12
2016-05-06T00:36:19.582Z,10.01
2016-05-06T00:37:19.553Z,10.01
2016-05-06T00:38:19.398Z,10.04
2016-05-06T00:39:19.386Z,9.96
2016-05-06T00:40:19.451Z,9.94
2016-05-06T00:41:19.219Z,9.93
2016-05-06T00:42:19.534Z,9.86
2016-05-06T00:43:19.522Z,9.83
2016-05-06T00:44:19.525Z,9.86
2016-05-06T00:45:19.527Z,9.87
2016-05-06T00:46:19.514Z,9.87
2016-05-06T00:47:19.516Z,9.83
2016-05-06T00:48:19.519Z,9.86
2016-05-06T00:49:19.507Z,9.81
2016-05-06T00:50:19.494Z,9.79
2016-05-06T00:51:19.340Z,9.87
2016-05-06T00:52:19.327Z,9.89
2016-05-06T00:53:19.502Z,9.81
2016-05-06T00:54:19.474Z,9.84
2016-05-06T00:55:19.319Z,9.87
2016-05-06T00:56:33.638Z,9.86
2016-05-06T00:57:20.013Z,9.9
2016-05-06T00:58:19.859Z,9.84
2016-05-06T00:59:19.143Z,9.83
2016-05-06T01:00:19.301Z,9.89
2016-05-06T01:01:19.446Z,9.87
2016-05-06T01:02:19.432Z,9.84
2016-05-06T01:03:19.279Z,9.93
2016-05-06T01:04:19.437Z,9.78
2016-05-06T01:05:20.175Z,9.86
2016-05-06T01:06:19.428Z,9.86
2016-05-06T01:07:19.821Z,9.86
2016-05-06T01:08:19.854Z,9.83
2016-05-06T01:09:19.404Z,9.74
2016-05-06T01:10:19.407Z,9.84
2016-05-06T01:11:19.519Z,9.87
2016-05-06T01:12:20.696Z,9.86
2016-05-06T01:13:20.887Z,9.84
2016-05-06T01:14:20.577Z,9.76
2016-05-06T01:15:19.389Z,9.84
2016-05-06T01:16:19.501Z,9.78
2016-05-06T01:17:19.410Z,9.78
2016-05-06T01:18:19.444Z,9.78
2016-05-06T01:19:19.213Z,9.71
2016-05-06T01:20:21.046Z,9.68
2016-05-06T01:21:20.296Z,9.72
2016-05-06T01:22:19.345Z,9.75
2016-05-06T01:23:20.286Z,9.68
2016-05-06T01:24:20.194Z,9.75
2016-05-06T01:25:19.541Z,9.69
2016-05-06T01:26:19.324Z,9.72
2016-05-06T01:27:19.172Z,9.68
2016-05-06T01:28:19.315Z,9.65
2016-05-06T01:29:19.161Z,9.66
2016-05-06T01:30:19.304Z,9.69
2016-05-06T01:31:19.307Z,9.65
2016-05-06T01:32:19.310Z,9.58
2016-05-06T01:33:19.328Z,9.57
2016-05-06T01:34:19.128Z,9.5
2016-05-06T01:35:19.286Z,9.48
2016-05-06T01:36:19.305Z,9.5
2016-05-06T01:37:19.276Z,9.46
2016-05-06T01:38:19.263Z,9.35
2016-05-06T01:39:19.266Z,9.36
2016-05-06T01:40:19.957Z,9.35
2016-05-06T01:41:19.100Z,9.38
2016-05-06T01:42:19.242Z,9.38
2016-05-06T01:43:19.262Z,9.32
2016-05-06T01:44:19.092Z,9.29
2016-05-06T01:45:19.079Z,9.32
2016-05-06T01:46:19.222Z,9.24
2016-05-06T01:47:19.225Z,9.24
2016-05-06T01:48:19.212Z,9.17
2016-05-06T01:49:19.231Z,9.1
2016-05-06T01:50:19.202Z,9.18
2016-05-06T01:51:19.219Z,9.14
2016-05-06T01:52:19.052Z,9.11
2016-05-06T01:53:19.039Z,9.04
2016-05-06T01:54:19.182Z,9.02
2016-05-06T01:55:19.918Z,9.05
2016-05-06T01:56:19.172Z,8.99
2016-05-06T01:57:19.174Z,8.96
2016-05-06T01:58:18.864Z,8.92
2016-05-06T01:59:19.163Z,8.89
2016-05-06T02:00:19.010Z,8.87
2016-05-06T02:01:19.154Z,8.87
2016-05-06T02:02:18.999Z,8.86
2016-05-06T02:03:19.143Z,8.92
2016-05-06T02:04:18.989Z,8.84
2016-05-06T02:05:18.977Z,8.8
2016-05-06T02:06:19.151Z,8.81
2016-05-06T02:07:19.138Z,8.8
2016-05-06T02:08:19.125Z,8.79
2016-05-06T02:09:19.112Z,8.76
2016-05-06T02:10:20.506Z,8.84
2016-05-06T02:11:18.945Z,8.8
2016-05-06T02:12:19.089Z,8.71
2016-05-06T02:13:19.092Z,8.77
2016-05-06T02:14:19.642Z,8.83
2016-05-06T02:15:19.784Z,8.76
2016-05-06T02:16:18.928Z,8.8
2016-05-06T02:17:33.450Z,8.68
2016-05-06T02:18:19.075Z,8.71
2016-05-06T02:19:19.358Z,8.63
2016-05-06T02:20:19.502Z,8.8
2016-05-06T02:21:19.051Z,8.71
2016-05-06T02:22:18.882Z,8.68
2016-05-06T02:23:19.088Z,8.71
2016-05-06T02:24:19.515Z,8.74
2016-05-06T02:25:33.912Z,8.66
2016-05-06T02:26:19.834Z,8.66
2016-05-06T02:27:19.009Z,8.68
2016-05-06T02:28:19.042Z,8.68
2016-05-06T02:29:19.608Z,8.66
2016-05-06T02:30:19.110Z,8.58
2016-05-06T02:31:19.223Z,8.65
2016-05-06T02:32:18.991Z,8.63
2016-05-06T02:33:18.993Z,8.61
2016-05-06T02:34:18.980Z,8.61
2016-05-06T02:35:19.561Z,8.61
2016-05-06T02:36:19.095Z,8.61
2016-05-06T02:37:19.113Z,8.59
2016-05-06T02:38:19.086Z,8.52
2016-05-06T02:39:19.744Z,8.53
2016-05-06T02:40:19.247Z,8.53
2016-05-06T02:41:20.093Z,8.52
2016-05-06T02:42:18.938Z,8.48
2016-05-06T02:43:19.738Z,8.48
2016-05-06T02:44:19.539Z,8.5
2016-05-06T02:45:19.291Z,8.41
2016-05-06T02:46:18.918Z,8.43
2016-05-06T02:47:18.594Z,8.47
2016-05-06T02:48:18.909Z,8.37
2016-05-06T02:49:18.895Z,8.5
2016-05-06T02:50:18.898Z,8.44
2016-05-06T02:51:18.730Z,8.44
2016-05-06T02:52:18.888Z,8.37
2016-05-06T02:53:18.875Z,8.34
2016-05-06T02:54:18.879Z,8.45
2016-05-06T02:55:18.864Z,8.34
2016-05-06T02:56:18.868Z,8.45
2016-05-06T02:57:18.854Z,8.41
2016-05-06T02:58:18.842Z,8.41
2016-05-06T02:59:18.845Z,8.43
2016-05-06T03:00:18.832Z,8.5
2016-05-06T03:01:18.834Z,8.44
2016-05-06T03:02:18.821Z,8.47
2016-05-06T03:03:18.825Z,8.4
2016-05-06T03:04:18.811Z,8.43
2016-05-06T03:05:18.830Z,8.48
2016-05-06T03:06:18.644Z,8.43
2016-05-06T03:07:18.803Z,8.45
2016-05-06T03:08:18.791Z,8.5
2016-05-06T03:09:18.636Z,8.36
2016-05-06T03:10:18.780Z,8.45
2016-05-06T03:11:18.783Z,8.45
2016-05-06T03:12:18.770Z,8.34
2016-05-06T03:13:18.601Z,8.34
2016-05-06T03:14:18.604Z,8.36
2016-05-06T03:15:18.746Z,8.33
2016-05-06T03:16:18.750Z,8.33
2016-05-06T03:17:18.737Z,8.36
2016-05-06T03:18:18.583Z,8.34
2016-05-06T03:19:18.726Z,8.33
2016-05-06T03:20:18.729Z,8.29
2016-05-06T03:21:18.716Z,8.3
2016-05-06T03:22:18.718Z,8.33
2016-05-06T03:23:18.706Z,8.3
2016-05-06T03:24:18.709Z,8.33
2016-05-06T03:25:18.696Z,8.28
2016-05-06T03:26:19.761Z,8.29
2016-05-06T03:27:18.685Z,8.29
2016-05-06T03:28:18.688Z,8.36
2016-05-06T03:29:18.362Z,8.33
2016-05-06T03:30:18.662Z,8.33
2016-05-06T03:31:18.650Z,8.33
2016-05-06T03:32:18.495Z,8.37
2016-05-06T03:33:19.951Z,8.29
2016-05-06T03:34:18.892Z,8.29
2016-05-06T03:35:47.038Z,8.33
2016-05-06T03:36:18.663Z,8.28
2016-05-06T03:37:18.634Z,8.37
2016-05-06T03:38:18.622Z,8.33
2016-05-06T03:39:18.561Z,8.36
2016-05-06T03:40:18.611Z,8.34
2016-05-06T03:41:18.624Z,8.38
2016-05-06T03:42:18.453Z,8.43
2016-05-06T03:43:18.443Z,8.4
2016-05-06T03:44:18.773Z,8.44
2016-05-06T03:45:18.557Z,8.47
2016-05-06T03:46:19.216Z,8.47
2016-05-06T03:47:18.547Z,8.41
2016-05-06T03:48:18.706Z,8.5
2016-05-06T03:50:19.868Z,8.44
2016-05-06T03:51:19.588Z,8.48
2016-05-06T03:52:18.529Z,8.5
2016-05-06T03:53:18.360Z,8.5
2016-05-06T03:54:18.409Z,8.55
2016-05-06T03:55:18.350Z,8.58
2016-05-06T03:56:18.634Z,8.61
2016-05-06T03:57:18.512Z,8.65
2016-05-06T03:58:19.670Z,8.63
2016-05-06T03:59:18.485Z,8.7
2016-05-06T04:00:18.520Z,8.74
2016-05-06T04:01:18.601Z,8.74
2016-05-06T04:02:18.478Z,8.83
2016-05-06T04:03:18.792Z,8.92
2016-05-06T04:04:18.468Z,9.08
2016-05-06T04:05:18.470Z,9.1
2016-05-06T04:06:18.456Z,9.4
2016-05-06T04:07:18.289Z,9.43
2016-05-06T04:08:18.292Z,9.6
2016-05-06T04:09:18.434Z,9.68
2016-05-06T04:10:18.280Z,9.89
2016-05-06T04:11:18.128Z,9.97
2016-05-06T04:12:18.426Z,10.18
2016-05-06T04:13:18.430Z,10.27
2016-05-06T04:14:18.260Z,10.45
2016-05-06T04:15:18.403Z,10.59
2016-05-06T04:16:18.250Z,10.7
2016-05-06T04:17:18.408Z,11.04
2016-05-06T04:18:18.411Z,11.22
2016-05-06T04:19:18.398Z,11.4
2016-05-06T04:20:18.402Z,11.65
2016-05-06T04:21:18.388Z,11.78
2016-05-06T04:22:18.391Z,12.13
2016-05-06T04:23:18.221Z,12.2
2016-05-06T04:24:18.380Z,12.31
2016-05-06T04:25:18.087Z,12.45
2016-05-06T04:26:18.385Z,12.59
2016-05-06T04:27:18.373Z,12.87
2016-05-06T04:28:18.376Z,13.01
2016-05-06T04:29:18.363Z,13.25
2016-05-06T04:30:18.209Z,13.59
2016-05-06T04:31:18.212Z,14.02
2016-05-06T04:32:18.215Z,14.22
2016-05-06T04:33:18.218Z,14.42
2016-05-06T04:34:18.361Z,14.64
2016-05-06T04:35:18.364Z,14.86
2016-05-06T04:36:18.367Z,15.17
2016-05-06T04:37:18.369Z,15.35
2016-05-06T04:38:18.372Z,15.64
2016-05-06T04:39:18.374Z,15.84
2016-05-06T04:40:18.205Z,16.04
2016-05-06T04:41:18.380Z,16.14
2016-05-06T04:42:18.211Z,16.46
2016-05-06T04:43:18.213Z,16.73
2016-05-06T04:44:18.216Z,16.98
2016-05-06T04:45:18.375Z,17.19
2016-05-06T04:46:18.377Z,17.54
2016-05-06T04:47:18.052Z,17.84
2016-05-06T04:48:18.367Z,18.11
2016-05-06T04:49:18.370Z,18.29
2016-05-06T04:50:18.216Z,18.57
2016-05-06T04:51:18.219Z,18.81
2016-05-06T04:52:18.674Z,19.21
2016-05-06T04:53:20.037Z,19.43
2016-05-06T04:54:18.383Z,19.65
2016-05-06T04:55:18.402Z,19.86
2016-05-06T04:56:19.841Z,20.08
2016-05-06T04:57:18.391Z,20.23
2016-05-06T04:58:18.254Z,20.36
2016-05-06T04:59:18.412Z,20.48
2016-05-06T05:00:18.415Z,20.55
2016-05-06T05:01:18.729Z,20.67
2016-05-06T05:02:20.233Z,20.76
2016-05-06T05:03:19.282Z,21.12
2016-05-06T05:04:18.441Z,21.28
2016-05-06T05:05:18.445Z,21.43
2016-05-06T05:06:18.447Z,21.65
2016-05-06T05:08:19.670Z,21.92
2016-05-06T05:09:18.909Z,22.03
2016-05-06T05:10:18.473Z,22.17
2016-05-06T05:11:18.968Z,22.25
2016-05-06T05:12:18.564Z,22.35
2016-05-06T05:13:18.614Z,22.47
2016-05-06T05:14:18.679Z,22.65
2016-05-06T05:15:18.558Z,22.85
2016-05-06T05:16:18.764Z,22.91
2016-05-06T05:17:18.847Z,23.09
2016-05-06T05:18:19.742Z,23.36
2016-05-06T05:19:19.636Z,23.53
2016-05-06T05:20:19.186Z,23.8
2016-05-06T05:21:19.701Z,23.97
2016-05-06T05:22:18.741Z,24.09
2016-05-06T05:23:18.922Z,24.21
2016-05-06T05:24:18.930Z,24.24
2016-05-06T05:25:18.940Z,24.34
2016-05-06T05:26:19.274Z,24.53
2016-05-06T05:27:18.984Z,24.65
2016-05-06T05:28:18.988Z,24.64
2016-05-06T05:29:19.009Z,24.64
2016-05-06T05:30:19.013Z,24.73
2016-05-06T05:31:19.017Z,24.84
2016-05-06T05:32:19.037Z,24.91
2016-05-06T05:33:19.040Z,25.05
2016-05-06T05:34:19.059Z,25.28
2016-05-06T05:35:19.062Z,25.32
2016-05-06T05:36:19.082Z,25.52
2016-05-06T05:37:19.084Z,25.73
2016-05-06T05:38:19.104Z,25.98
2016-05-06T05:39:19.122Z,26.06
2016-05-06T05:40:18.969Z,26.39
2016-05-06T05:41:19.863Z,26.58
2016-05-06T05:42:19.147Z,26.72
2016-05-06T05:43:19.180Z,26.91
2016-05-06T05:44:19.043Z,27
2016-05-06T05:45:19.030Z,27.03
2016-05-06T05:46:19.204Z,27.22
2016-05-06T05:47:19.207Z,27.27
2016-05-06T05:48:19.210Z,27.41
2016-05-06T05:49:19.228Z,27.55
2016-05-06T05:50:19.105Z,27.79
2016-05-06T05:51:19.249Z,27.87
2016-05-06T05:52:19.110Z,28.06
2016-05-06T05:53:19.129Z,28
2016-05-06T05:54:19.304Z,27.99
2016-05-06T05:55:19.307Z,28.14
2016-05-06T05:56:19.856Z,28.18
2016-05-06T05:57:19.328Z,28.39
2016-05-06T05:58:19.190Z,28.46
2016-05-06T05:59:19.317Z,28.43
2016-05-06T06:00:19.382Z,28.37
2016-05-06T06:01:19.589Z,28.54
2016-05-06T06:02:19.247Z,28.58
2016-05-06T06:03:19.250Z,28.64
2016-05-06T06:04:19.425Z,28.76
2016-05-06T06:05:19.442Z,28.76
2016-05-06T06:06:19.289Z,28.73
2016-05-06T06:07:19.464Z,28.88
2016-05-06T06:08:19.483Z,28.9
2016-05-06T06:09:19.344Z,29.12
2016-05-06T06:10:19.503Z,29.21
2016-05-06T06:11:21.036Z,29.36
2016-05-06T06:12:19.586Z,29.42
2016-05-06T06:13:20.511Z,29.48
2016-05-06T06:14:19.561Z,29.63
2016-05-06T06:15:20.127Z,29.65
2016-05-06T06:16:19.597Z,29.76
2016-05-06T06:17:19.615Z,29.92
2016-05-06T06:18:19.822Z,30.13
2016-05-06T06:19:19.699Z,30.2
2016-05-06T06:20:19.718Z,30.31
2016-05-06T06:21:19.674Z,30.49
2016-05-06T06:22:20.035Z,30.65
2016-05-06T06:23:20.210Z,30.76
2016-05-06T06:24:34.904Z,31.02
2016-05-06T06:25:19.732Z,30.99
2016-05-06T06:27:20.549Z,31.29
2016-05-06T06:28:20.551Z,31.44
2016-05-06T06:29:19.632Z,31.36
2016-05-06T06:30:20.728Z,31.46
2016-05-06T06:31:20.560Z,31.51
2016-05-06T06:32:19.859Z,31.57
2016-05-06T06:33:20.017Z,31.56
2016-05-06T06:34:19.896Z,31.56
2016-05-06T06:35:19.898Z,31.43
2016-05-06T06:36:20.697Z,31.31
2016-05-06T06:37:20.717Z,31.26
2016-05-06T06:38:21.031Z,31.17
2016-05-06T06:39:19.972Z,31.01
2016-05-06T06:40:20.537Z,30.88
2016-05-06T06:41:20.461Z,30.72
2016-05-06T06:42:20.027Z,30.61
2016-05-06T06:43:20.122Z,30.57
2016-05-06T06:44:20.063Z,30.62
2016-05-06T06:45:20.082Z,30.62
2016-05-06T06:46:20.100Z,30.62
2016-05-06T06:47:19.947Z,30.69
2016-05-06T06:48:19.980Z,30.61
2016-05-06T06:49:20.155Z,30.62
2016-05-06T06:50:20.173Z,30.53
2016-05-06T06:51:20.191Z,30.46
2016-05-06T06:52:20.054Z,30.37
2016-05-06T06:53:20.213Z,30.42
2016-05-06T06:54:20.246Z,30.49
2016-05-06T06:55:20.249Z,30.54
2016-05-06T06:56:20.689Z,30.58
2016-05-06T06:57:20.129Z,30.77
2016-05-06T06:58:20.304Z,30.86
2016-05-06T06:59:20.337Z,30.94
2016-05-06T07:00:20.341Z,30.98
2016-05-06T07:01:20.359Z,31.01
2016-05-06T07:02:20.393Z,31.02
2016-05-06T07:03:20.240Z,31.04
2016-05-06T07:04:20.398Z,30.88
2016-05-06T07:05:20.431Z,30.82
2016-05-06T07:06:20.450Z,30.98
2016-05-06T07:07:20.469Z,31.13
2016-05-06T07:08:20.503Z,31.25
2016-05-06T07:09:20.505Z,31.29
2016-05-06T07:10:20.525Z,31.36
2016-05-06T07:11:20.808Z,31.53
2016-05-06T07:12:20.404Z,31.7
2016-05-06T07:13:20.578Z,31.73
2016-05-06T07:14:20.597Z,31.84
2016-05-06T07:15:20.630Z,31.99
2016-05-06T07:16:20.633Z,32.07
2016-05-06T07:17:20.652Z,32.14
2016-05-06T07:18:20.671Z,32.28
2016-05-06T07:19:20.705Z,32.3
2016-05-06T07:20:20.722Z,32.11
2016-05-06T07:21:20.725Z,32.19
2016-05-06T07:22:20.743Z,32.25
2016-05-06T07:23:20.813Z,32.11
2016-05-06T07:24:20.785Z,32.19
2016-05-06T07:25:20.803Z,32.21
2016-05-06T07:26:20.681Z,32.03
2016-05-06T07:27:20.856Z,31.84
2016-05-06T07:28:20.874Z,31.86
2016-05-06T07:29:20.876Z,31.75
2016-05-06T07:30:35.085Z,31.89
2016-05-06T07:31:22.023Z,31.99
2016-05-06T07:32:20.995Z,32.19
2016-05-06T07:33:21.310Z,32.15
2016-05-06T07:34:21.234Z,32.04
2016-05-06T07:35:21.502Z,31.89
2016-05-06T07:36:21.020Z,31.84
2016-05-06T07:37:21.039Z,31.56
2016-05-06T07:38:20.900Z,31.48
2016-05-06T07:39:22.481Z,31.38
2016-05-06T07:40:20.953Z,31.34
2016-05-06T07:41:23.487Z,31.26
2016-05-06T07:42:21.146Z,31.35
2016-05-06T07:43:21.899Z,31.41
2016-05-06T07:44:21.183Z,31.65
2016-05-06T07:45:21.966Z,31.65
2016-05-06T07:46:22.000Z,31.62
2016-05-06T07:47:20.925Z,31.48
2016-05-06T07:48:21.099Z,31.44
2016-05-06T07:49:21.900Z,31.46
2016-05-06T07:50:21.402Z,31.39
2016-05-06T07:51:21.310Z,31.13
2016-05-06T07:52:21.345Z,31.13
2016-05-06T07:53:21.348Z,31.14
2016-05-06T07:54:21.365Z,31.23
2016-05-06T07:55:22.243Z,31.46
2016-05-06T07:56:21.684Z,31.66
2016-05-06T07:57:21.437Z,31.84
2016-05-06T07:58:21.611Z,31.75
2016-05-06T07:59:21.646Z,31.73
2016-05-06T08:00:21.507Z,31.66
2016-05-06T08:01:21.509Z,31.51
2016-05-06T08:02:21.528Z,31.51
2016-05-06T08:03:21.390Z,31.63
2016-05-06T08:04:21.580Z,31.36
2016-05-06T08:05:21.442Z,31.32
2016-05-06T08:06:21.617Z,31.23
2016-05-06T08:07:21.636Z,31.23
2016-05-06T08:08:21.669Z,31.2
2016-05-06T08:09:21.687Z,31.16
2016-05-06T08:10:21.550Z,31.31
2016-05-06T08:11:22.364Z,31.31
2016-05-06T08:12:21.742Z,31.06
2016-05-06T08:13:21.776Z,30.86
2016-05-06T08:14:21.780Z,30.73
2016-05-06T08:15:21.813Z,30.6
2016-05-06T08:16:21.706Z,30.34
2016-05-06T08:17:21.693Z,30.08
2016-05-06T08:18:21.868Z,30.01
2016-05-06T08:19:21.730Z,29.95
2016-05-06T08:20:21.920Z,30.01
2016-05-06T08:21:21.938Z,29.97
2016-05-06T08:22:21.941Z,30.05
2016-05-06T08:23:21.975Z,30.19
2016-05-06T08:24:21.993Z,30.15
2016-05-06T08:25:22.012Z,30.15
2016-05-06T08:26:22.030Z,30.08
2016-05-06T08:27:22.048Z,30.1
2016-05-06T08:28:22.082Z,29.82
2016-05-06T08:29:22.085Z,29.73
2016-05-06T08:30:22.103Z,29.57
2016-05-06T08:31:22.121Z,29.34
2016-05-06T08:32:21.984Z,29.04
2016-05-06T08:33:22.159Z,28.68
2016-05-06T08:34:22.020Z,28.41
2016-05-06T08:35:22.195Z,28.29
2016-05-06T08:36:22.214Z,28.04
2016-05-06T08:37:22.231Z,27.69
2016-05-06T08:38:22.094Z,27.28
2016-05-06T08:39:22.267Z,26.95
2016-05-06T08:40:22.271Z,26.67
2016-05-06T08:41:22.148Z,26.36
2016-05-06T08:42:22.151Z,26.12
2016-05-06T08:43:22.169Z,25.75
2016-05-06T08:44:22.344Z,25.47
2016-05-06T08:45:22.191Z,25.21
2016-05-06T08:46:22.208Z,25
2016-05-06T08:47:22.383Z,24.96
2016-05-06T08:48:22.261Z,24.76
2016-05-06T08:49:22.404Z,24.52
2016-05-06T08:50:23.126Z,24.28
2016-05-06T08:51:22.269Z,24.12
2016-05-06T08:52:22.443Z,23.98
2016-05-06T08:53:22.463Z,23.9
2016-05-06T08:54:22.574Z,23.72
2016-05-06T08:55:22.468Z,23.68
2016-05-06T08:56:22.345Z,23.5
2016-05-06T08:57:22.488Z,23.28
2016-05-06T08:58:22.851Z,23.13
2016-05-06T08:59:22.854Z,23.05
2016-05-06T09:00:22.621Z,22.98
2016-05-06T09:01:22.546Z,22.9
2016-05-06T09:02:22.548Z,22.83
2016-05-06T09:03:22.662Z,22.73
2016-05-06T09:04:23.023Z,22.61
2016-05-06T09:05:24.088Z,22.51
2016-05-06T09:06:24.106Z,22.42
2016-05-06T09:07:23.672Z,22.37
2016-05-06T09:08:22.595Z,22.33
2016-05-06T09:09:23.067Z,22.39
2016-05-06T09:10:22.976Z,22.31
2016-05-06T09:11:22.964Z,22.25
2016-05-06T09:12:22.451Z,22.14
2016-05-06T09:13:25.547Z,22.05
2016-05-06T09:14:23.409Z,21.92
2016-05-06T09:15:23.411Z,21.91
2016-05-06T09:16:22.649Z,21.82
2016-05-06T09:17:22.652Z,21.69
2016-05-06T09:18:22.983Z,21.68
2016-05-06T09:19:22.500Z,21.68
2016-05-06T09:20:22.503Z,21.67
2016-05-06T09:21:22.662Z,21.61
2016-05-06T09:22:22.525Z,21.52
2016-05-06T09:23:22.683Z,21.59
2016-05-06T09:24:22.529Z,21.46
2016-05-06T09:25:22.533Z,21.46
2016-05-06T09:26:22.567Z,21.49
2016-05-06T09:27:22.538Z,21.49
2016-05-06T09:28:22.541Z,21.47
2016-05-06T09:29:22.715Z,21.49
2016-05-06T09:30:22.718Z,21.37
2016-05-06T09:31:22.720Z,21.35
2016-05-06T09:32:22.567Z,21.32
2016-05-06T09:33:22.726Z,21.32
2016-05-06T09:34:22.729Z,21.43
2016-05-06T09:35:22.732Z,21.37
2016-05-06T09:36:22.750Z,21.37
2016-05-06T09:37:22.737Z,21.32
2016-05-06T09:38:22.756Z,21.37
2016-05-06T09:39:22.758Z,21.38
2016-05-06T09:40:22.761Z,21.32
2016-05-06T09:41:23.889Z,21.4
2016-05-06T09:42:22.766Z,21.38
2016-05-06T09:43:22.769Z,21.24
2016-05-06T09:44:23.537Z,21.25
2016-05-06T09:45:22.790Z,21.32
2016-05-06T09:46:22.777Z,21.25
2016-05-06T09:47:22.483Z,21.22
2016-05-06T09:48:22.814Z,21.21
2016-05-06T09:49:22.800Z,21.22
2016-05-06T09:50:22.802Z,21.17
2016-05-06T09:51:22.806Z,21.19
2016-05-06T09:52:22.808Z,21.24
2016-05-06T09:53:22.811Z,21.22
2016-05-06T09:54:22.814Z,21.27
2016-05-06T09:55:22.816Z,21.28
2016-05-06T09:56:22.663Z,21.21
2016-05-06T09:57:22.838Z,21.35
2016-05-06T09:58:22.840Z,21.37
2016-05-06T09:59:22.687Z,21.43
2016-05-06T10:00:22.829Z,21.31
2016-05-06T10:01:22.849Z,21.28
2016-05-06T10:02:22.851Z,21.35
2016-05-06T10:03:22.868Z,21.37
2016-05-06T10:04:22.857Z,21.34
2016-05-06T10:05:22.859Z,21.37
2016-05-06T10:06:22.720Z,21.35
2016-05-06T10:07:22.709Z,21.4
2016-05-06T10:08:22.726Z,21.38
2016-05-06T10:09:22.885Z,21.38
2016-05-06T10:10:22.888Z,21.34
2016-05-06T10:11:23.125Z,21.35
2016-05-06T10:12:23.097Z,21.35
2016-05-06T10:13:22.896Z,21.37
2016-05-06T10:14:22.743Z,21.35
2016-05-06T10:15:22.933Z,21.37
2016-05-06T10:16:23.858Z,21.53
2016-05-06T10:17:22.922Z,21.47
2016-05-06T10:18:22.925Z,21.49
2016-05-06T10:19:23.866Z,21.58
2016-05-06T10:20:22.774Z,21.65
2016-05-06T10:21:22.950Z,21.62
2016-05-06T10:22:23.092Z,21.65
2016-05-06T10:23:23.205Z,21.65
2016-05-06T10:24:23.394Z,21.77
2016-05-06T10:25:22.943Z,21.72
2016-05-06T10:26:23.885Z,21.72
2016-05-06T10:27:22.808Z,21.77
2016-05-06T10:28:23.608Z,21.8
2016-05-06T10:29:22.971Z,21.72
2016-05-06T10:30:22.832Z,21.8
2016-05-06T10:31:23.054Z,21.79
2016-05-06T10:33:24.435Z,21.8
2016-05-06T10:34:22.827Z,21.77
2016-05-06T10:35:22.987Z,21.68
2016-05-06T10:36:22.989Z,21.68
2016-05-06T10:37:23.117Z,21.71
2016-05-06T10:38:23.479Z,21.64
2016-05-06T10:39:23.012Z,21.71
2016-05-06T10:40:23.187Z,21.69
2016-05-06T10:41:24.471Z,21.62
2016-05-06T10:42:22.865Z,21.67
2016-05-06T10:43:23.023Z,21.72
2016-05-06T10:44:23.026Z,21.59
2016-05-06T10:45:23.045Z,21.61
2016-05-06T10:46:23.031Z,21.65
2016-05-06T10:47:23.034Z,21.69
2016-05-06T10:48:23.053Z,21.65
2016-05-06T10:49:23.055Z,21.67
2016-05-06T10:50:22.903Z,21.67
2016-05-06T10:51:23.045Z,21.61
2016-05-06T10:52:23.063Z,21.65
2016-05-06T10:53:22.910Z,21.64
2016-05-06T10:54:23.069Z,21.67
2016-05-06T10:55:23.072Z,21.65
2016-05-06T10:56:23.106Z,21.67
2016-05-06T10:57:23.077Z,21.67
2016-05-06T10:58:23.096Z,21.71
2016-05-06T10:59:23.098Z,21.74
2016-05-06T11:00:22.930Z,21.74
2016-05-06T11:01:23.103Z,21.77
2016-05-06T11:02:23.107Z,21.74
2016-05-06T11:03:23.109Z,21.82
2016-05-06T11:04:22.955Z,21.77
2016-05-06T11:05:23.114Z,21.77
2016-05-06T11:06:23.117Z,21.86
2016-05-06T11:07:23.120Z,21.82
2016-05-06T11:08:22.982Z,21.8
2016-05-06T11:09:23.125Z,21.9
2016-05-06T11:10:23.143Z,21.94
2016-05-06T11:11:23.490Z,21.96
2016-05-06T11:12:23.962Z,22.02
2016-05-06T11:13:22.995Z,22.05
2016-05-06T11:14:22.998Z,22.1
2016-05-06T11:15:23.001Z,22.05
2016-05-06T11:16:23.144Z,22.07
2016-05-06T11:17:23.178Z,22.06
2016-05-06T11:18:23.009Z,22.03
2016-05-06T11:19:23.167Z,22.03
2016-05-06T11:20:23.170Z,22.07
2016-05-06T11:21:23.173Z,22.02
2016-05-06T11:22:23.192Z,22
2016-05-06T11:23:23.194Z,22.1
2016-05-06T11:24:23.196Z,22.1
2016-05-06T11:25:23.215Z,22.1
2016-05-06T11:26:23.202Z,22.06
2016-05-06T11:27:23.767Z,22.12
2016-05-06T11:28:23.895Z,22.17
2016-05-06T11:29:23.507Z,22.17
2016-05-06T11:31:23.216Z,22.28
2016-05-06T11:32:23.218Z,22.24
2016-05-06T11:33:23.236Z,22.25
2016-05-06T11:34:23.318Z,22.21
2016-05-06T11:35:24.788Z,22.22
2016-05-06T11:36:23.917Z,22.28
2016-05-06T11:37:23.841Z,22.25
2016-05-06T11:38:23.249Z,22.39
2016-05-06T11:39:23.457Z,22.25
2016-05-06T11:40:23.459Z,22.37
2016-05-06T11:41:24.305Z,22.33
2016-05-06T11:42:23.120Z,22.36
2016-05-06T11:43:23.123Z,22.4
2016-05-06T11:44:23.704Z,22.4
2016-05-06T11:45:23.972Z,22.43
2016-05-06T11:46:23.553Z,22.4
2016-05-06T11:47:23.290Z,22.46
2016-05-06T11:48:23.339Z,22.43
2016-05-06T11:49:23.404Z,22.45
2016-05-06T11:50:23.298Z,22.52
2016-05-06T11:52:23.866Z,22.52
2016-05-06T11:53:23.978Z,22.55
2016-05-06T11:54:23.450Z,22.51
2016-05-06T11:55:23.936Z,22.49
2016-05-06T11:56:23.330Z,22.51
2016-05-06T11:57:23.332Z,22.54
2016-05-06T11:58:23.336Z,22.51
2016-05-06T11:59:23.666Z,22.46
2016-05-06T12:00:23.355Z,22.49
2016-05-06T12:01:23.203Z,22.47
2016-05-06T12:02:23.361Z,22.54
2016-05-06T12:03:23.052Z,22.51
2016-05-06T12:04:23.366Z,22.61
2016-05-06T12:05:23.370Z,22.58
2016-05-06T12:06:23.372Z,22.65
2016-05-06T12:07:23.390Z,22.6
2016-05-06T12:08:23.394Z,22.62
2016-05-06T12:09:23.396Z,22.6
2016-05-06T12:10:23.243Z,22.62
2016-05-06T12:11:23.260Z,22.6
2016-05-06T12:12:23.091Z,22.57
2016-05-06T12:13:23.407Z,22.64
2016-05-06T12:14:23.253Z,22.61
2016-05-06T12:15:23.412Z,22.61
2016-05-06T12:16:23.430Z,22.62
2016-05-06T12:17:23.418Z,22.65
2016-05-06T12:18:23.264Z,22.67
2016-05-06T12:19:23.282Z,22.57
2016-05-06T12:20:23.285Z,22.62
2016-05-06T12:21:23.444Z,22.7
2016-05-06T12:22:23.447Z,22.65
2016-05-06T12:23:23.465Z,22.61
2016-05-06T12:24:23.452Z,22.75
2016-05-06T12:25:23.470Z,22.7
2016-05-06T12:26:23.723Z,22.73
2016-05-06T12:27:23.476Z,22.72
2016-05-06T12:28:23.478Z,22.75
2016-05-06T12:29:23.324Z,22.76
2016-05-06T12:30:23.484Z,22.75
2016-05-06T12:31:23.330Z,22.76
2016-05-06T12:32:23.505Z,22.76
2016-05-06T12:33:23.492Z,22.75
2016-05-06T12:34:23.354Z,22.79
2016-05-06T12:35:23.513Z,22.82
2016-05-06T12:36:23.515Z,22.86
2016-05-06T12:37:23.519Z,22.8
2016-05-06T12:38:23.552Z,22.92
2016-05-06T12:39:23.554Z,22.88
2016-05-06T12:40:23.964Z,22.85
2016-05-06T12:41:23.654Z,22.91
2016-05-06T12:42:23.531Z,22.9
2016-05-06T12:43:23.550Z,22.91
2016-05-06T12:44:23.787Z,22.91
2016-05-06T12:45:25.415Z,22.94
2016-05-06T12:46:23.557Z,22.98
2016-05-06T12:47:23.560Z,22.98
2016-05-06T12:48:23.813Z,22.88
2016-05-06T12:49:23.832Z,22.91
2016-05-06T12:50:23.679Z,23.02
2016-05-06T12:51:23.775Z,23.02
2016-05-06T12:52:23.590Z,23.04
2016-05-06T12:53:23.592Z,23.09
2016-05-06T12:54:32.767Z,23.07
2016-05-06T12:55:24.254Z,23.02
2016-05-06T12:57:23.619Z,23.07
2016-05-06T12:58:23.622Z,23.12
2016-05-06T12:59:23.640Z,23.04
2016-05-06T13:00:24.033Z,23.1
2016-05-06T13:02:24.476Z,23.23
2016-05-06T13:03:24.947Z,23.07
2016-05-06T13:04:23.653Z,23.16
2016-05-06T13:05:24.047Z,23.1
2016-05-06T13:06:23.658Z,23.05
2016-05-06T13:07:24.568Z,23.13
2016-05-06T13:08:24.211Z,23.16
2016-05-06T13:09:23.979Z,23.23